sensor_id;sensor_type;location;lat;lon;timestamp;pressure;altitude;pressure_sealevel;temperature;humidity
6208;BME280;3137;51.550;7.060;2022-11-15T00:00:51;50174.75;;;-142.65;86.49
6208;BME280;3137;51.550;7.060;2022-11-15T00:03:36;50172.78;;;-142.65;86.58
6208;BME280;3137;51.550;7.060;2022-11-15T00:09:06;50170.78;;;-142.65;86.82
6208;BME280;3137;51.550;7.060;2022-11-15T00:11:51;50182.72;;;-142.65;86.74
6208;BME280;3137;51.550;7.060;2022-11-15T00:14:36;50170.78;;;-142.65;86.90
6208;BME280;3137;51.550;7.060;2022-11-15T00:17:21;50172.78;;;-142.65;86.98
6208;BME280;3137;51.550;7.060;2022-11-15T00:20:06;50174.75;;;-142.65;86.99
6208;BME280;3137;51.550;7.060;2022-11-15T00:22:52;50174.75;;;-142.65;87.24
6208;BME280;3137;51.550;7.060;2022-11-15T00:25:36;50174.75;;;-142.65;87.28
6208;BME280;3137;51.550;7.060;2022-11-15T00:28:21;50168.78;;;-142.65;87.42
6208;BME280;3137;51.550;7.060;2022-11-15T00:31:09;50178.75;;;-142.65;87.55
6208;BME280;3137;51.550;7.060;2022-11-15T00:33:55;50170.78;;;-142.65;87.80
6208;BME280;3137;51.550;7.060;2022-11-15T00:36:40;50176.75;;;-142.65;88.14
6208;BME280;3137;51.550;7.060;2022-11-15T00:39:25;50174.75;;;-142.65;88.58
6208;BME280;3137;51.550;7.060;2022-11-15T00:42:10;50172.78;;;-142.65;89.48
6208;BME280;3137;51.550;7.060;2022-11-15T00:44:54;50178.75;;;-142.65;89.85
6208;BME280;3137;51.550;7.060;2022-11-15T00:47:39;50168.78;;;-142.65;89.97
6208;BME280;3137;51.550;7.060;2022-11-15T00:50:24;50174.75;;;-142.65;90.53
6208;BME280;3137;51.550;7.060;2022-11-15T00:53:10;50164.81;;;-142.65;90.81
6208;BME280;3137;51.550;7.060;2022-11-15T00:55:55;50170.78;;;-142.65;91.82
6208;BME280;3137;51.550;7.060;2022-11-15T00:58:39;50170.78;;;-142.65;91.68
6208;BME280;3137;51.550;7.060;2022-11-15T01:01:24;50170.78;;;-142.65;91.76
6208;BME280;3137;51.550;7.060;2022-11-15T01:04:09;50172.78;;;-142.65;91.84
6208;BME280;3137;51.550;7.060;2022-11-15T01:06:54;50176.75;;;-142.65;91.82
6208;BME280;3137;51.550;7.060;2022-11-15T01:09:39;50172.78;;;-142.65;92.03
6208;BME280;3137;51.550;7.060;2022-11-15T01:12:24;50168.78;;;-142.65;91.94
6208;BME280;3137;51.550;7.060;2022-11-15T01:15:09;50170.78;;;-142.65;92.01
6208;BME280;3137;51.550;7.060;2022-11-15T01:17:54;50174.75;;;-142.65;92.00
6208;BME280;3137;51.550;7.060;2022-11-15T01:20:43;50168.78;;;-142.65;92.00
6208;BME280;3137;51.550;7.060;2022-11-15T01:26:15;50172.78;;;-142.65;91.44
6208;BME280;3137;51.550;7.060;2022-11-15T01:29:00;50170.78;;;-142.65;91.60
6208;BME280;3137;51.550;7.060;2022-11-15T01:31:44;50178.75;;;-142.65;91.54
6208;BME280;3137;51.550;7.060;2022-11-15T01:42:43;50168.78;;;-142.65;91.27
6208;BME280;3137;51.550;7.060;2022-11-15T01:45:28;50172.78;;;-142.65;91.19
6208;BME280;3137;51.550;7.060;2022-11-15T01:48:13;50170.78;;;-142.65;90.46
6208;BME280;3137;51.550;7.060;2022-11-15T01:59:21;50174.75;;;-142.65;90.23
6208;BME280;3137;51.550;7.060;2022-11-15T02:02:06;50170.78;;;-142.65;89.82
6208;BME280;3137;51.550;7.060;2022-11-15T02:04:52;50170.78;;;-142.65;89.30
6208;BME280;3137;51.550;7.060;2022-11-15T02:07:37;50170.78;;;-142.65;89.18
6208;BME280;3137;51.550;7.060;2022-11-15T02:10:24;50170.78;;;-142.65;89.04
6208;BME280;3137;51.550;7.060;2022-11-15T02:13:09;50174.75;;;-142.65;89.18
6208;BME280;3137;51.550;7.060;2022-11-15T02:16:09;50172.78;;;-142.65;89.18
6208;BME280;3137;51.550;7.060;2022-11-15T02:22:37;50168.78;;;-142.65;89.10
6208;BME280;3137;51.550;7.060;2022-11-15T02:28:58;50164.81;;;-142.65;88.88
6208;BME280;3137;51.550;7.060;2022-11-15T02:32:09;50162.81;;;-142.65;88.96
6208;BME280;3137;51.550;7.060;2022-11-15T02:35:01;50170.78;;;-142.65;88.85
6208;BME280;3137;51.550;7.060;2022-11-15T02:40:56;50176.75;;;-142.65;88.80
6208;BME280;3137;51.550;7.060;2022-11-15T02:43:48;50164.81;;;-142.65;88.81
6208;BME280;3137;51.550;7.060;2022-11-15T02:46:53;50170.78;;;-142.65;88.85
6208;BME280;3137;51.550;7.060;2022-11-15T02:50:05;50168.78;;;-142.65;88.90
6208;BME280;3137;51.550;7.060;2022-11-15T02:52:52;50170.78;;;-142.65;89.01
6208;BME280;3137;51.550;7.060;2022-11-15T02:55:38;50168.78;;;-142.65;88.91
6208;BME280;3137;51.550;7.060;2022-11-15T03:04:53;50170.78;;;-142.65;88.85
6208;BME280;3137;51.550;7.060;2022-11-15T03:07:59;50168.78;;;-142.65;89.09
6208;BME280;3137;51.550;7.060;2022-11-15T03:14:11;50172.78;;;-142.65;88.81
6208;BME280;3137;51.550;7.060;2022-11-15T03:17:16;50164.81;;;-142.65;88.86
6208;BME280;3137;51.550;7.060;2022-11-15T03:22:50;50174.75;;;-142.65;88.84
6208;BME280;3137;51.550;7.060;2022-11-15T03:25:40;50162.81;;;-142.65;88.81
6208;BME280;3137;51.550;7.060;2022-11-15T03:31:17;50174.75;;;-142.65;88.68
6208;BME280;3137;51.550;7.060;2022-11-15T03:34:28;50170.78;;;-142.65;88.79
6208;BME280;3137;51.550;7.060;2022-11-15T03:37:15;50164.81;;;-142.65;88.82
6208;BME280;3137;51.550;7.060;2022-11-15T03:49:21;50164.81;;;-142.65;88.73
6208;BME280;3137;51.550;7.060;2022-11-15T03:52:09;50172.78;;;-142.65;88.70
6208;BME280;3137;51.550;7.060;2022-11-15T04:05:55;50164.81;;;-142.65;88.72
6208;BME280;3137;51.550;7.060;2022-11-15T04:16:54;50178.75;;;-142.65;88.68
6208;BME280;3137;51.550;7.060;2022-11-15T04:19:39;50170.78;;;-142.65;88.68
6208;BME280;3137;51.550;7.060;2022-11-15T04:26:09;50170.78;;;-142.65;88.34
6208;BME280;3137;51.550;7.060;2022-11-15T04:31:58;50170.78;;;-142.65;88.09
6208;BME280;3137;51.550;7.060;2022-11-15T04:34:43;50164.81;;;-142.65;87.95
6208;BME280;3137;51.550;7.060;2022-11-15T04:37:28;50170.78;;;-142.65;87.85
6208;BME280;3137;51.550;7.060;2022-11-15T04:45:48;50178.75;;;-142.65;87.67
6208;BME280;3137;51.550;7.060;2022-11-15T04:48:32;50168.78;;;-142.65;87.01
6208;BME280;3137;51.550;7.060;2022-11-15T04:56:47;50170.78;;;-142.65;87.23
6208;BME280;3137;51.550;7.060;2022-11-15T04:59:32;50162.81;;;-142.65;87.36
6208;BME280;3137;51.550;7.060;2022-11-15T05:02:17;50170.78;;;-142.65;87.28
6208;BME280;3137;51.550;7.060;2022-11-15T05:05:02;50174.75;;;-142.65;87.05
6208;BME280;3137;51.550;7.060;2022-11-15T05:10:31;50168.78;;;-142.65;87.15
6208;BME280;3137;51.550;7.060;2022-11-15T05:13:17;50164.81;;;-142.65;87.08
6208;BME280;3137;51.550;7.060;2022-11-15T05:16:02;50170.78;;;-142.65;87.16
6208;BME280;3137;51.550;7.060;2022-11-15T05:18:50;50170.78;;;-142.65;86.70
6208;BME280;3137;51.550;7.060;2022-11-15T05:21:36;50170.78;;;-142.65;86.54
6208;BME280;3137;51.550;7.060;2022-11-15T05:24:20;50168.78;;;-142.65;86.87
6208;BME280;3137;51.550;7.060;2022-11-15T05:27:05;50170.78;;;-142.65;86.99
6208;BME280;3137;51.550;7.060;2022-11-15T05:29:50;50170.78;;;-142.65;87.43
6208;BME280;3137;51.550;7.060;2022-11-15T05:32:35;50172.78;;;-142.65;87.65
6208;BME280;3137;51.550;7.060;2022-11-15T05:35:31;50170.78;;;-142.65;88.20
6208;BME280;3137;51.550;7.060;2022-11-15T05:38:19;50168.78;;;-142.65;88.44
6208;BME280;3137;51.550;7.060;2022-11-15T05:43:49;50170.78;;;-142.65;89.37
6208;BME280;3137;51.550;7.060;2022-11-15T05:49:23;50170.78;;;-142.65;90.01
6208;BME280;3137;51.550;7.060;2022-11-15T05:52:09;50176.75;;;-142.65;90.85
6208;BME280;3137;51.550;7.060;2022-11-15T06:00:27;50168.78;;;-142.65;92.82
6208;BME280;3137;51.550;7.060;2022-11-15T06:03:12;50170.78;;;-142.65;92.75
6208;BME280;3137;51.550;7.060;2022-11-15T06:05:58;50174.75;;;-142.65;93.28
6208;BME280;3137;51.550;7.060;2022-11-15T06:08:43;50170.78;;;-142.65;93.64
6208;BME280;3137;51.550;7.060;2022-11-15T06:11:28;50168.78;;;-142.65;93.74
6208;BME280;3137;51.550;7.060;2022-11-15T06:14:13;50170.78;;;-142.65;94.02
6208;BME280;3137;51.550;7.060;2022-11-15T06:19:42;50178.75;;;-142.65;94.42
6208;BME280;3137;51.550;7.060;2022-11-15T06:22:27;50168.78;;;-142.65;94.56
6208;BME280;3137;51.550;7.060;2022-11-15T06:25:12;50178.75;;;-142.65;94.79
6208;BME280;3137;51.550;7.060;2022-11-15T06:27:58;50168.78;;;-142.65;94.77
6208;BME280;3137;51.550;7.060;2022-11-15T06:30:43;50170.78;;;-142.65;94.61
6208;BME280;3137;51.550;7.060;2022-11-15T06:33:34;50170.78;;;-142.65;94.13
6208;BME280;3137;51.550;7.060;2022-11-15T06:36:19;50170.78;;;-142.65;93.88
6208;BME280;3137;51.550;7.060;2022-11-15T06:39:05;50174.75;;;-142.65;93.96
6208;BME280;3137;51.550;7.060;2022-11-15T06:41:50;50172.78;;;-142.65;93.80
6208;BME280;3137;51.550;7.060;2022-11-15T06:44:35;50180.75;;;-142.65;93.80
6208;BME280;3137;51.550;7.060;2022-11-15T06:50:05;50170.78;;;-142.65;93.38
6208;BME280;3137;51.550;7.060;2022-11-15T06:55:35;50168.78;;;-142.65;93.27
6208;BME280;3137;51.550;7.060;2022-11-15T06:58:20;50170.78;;;-142.65;93.42
6208;BME280;3137;51.550;7.060;2022-11-15T07:01:09;50170.78;;;-142.65;93.48
6208;BME280;3137;51.550;7.060;2022-11-15T07:03:54;50170.78;;;-142.65;93.21
6208;BME280;3137;51.550;7.060;2022-11-15T07:09:23;50174.75;;;-142.65;92.99
6208;BME280;3137;51.550;7.060;2022-11-15T07:14:53;50170.78;;;-142.65;92.92
6208;BME280;3137;51.550;7.060;2022-11-15T07:20:23;50164.81;;;-142.65;93.06
6208;BME280;3137;51.550;7.060;2022-11-15T07:23:07;50168.78;;;-142.65;92.51
6208;BME280;3137;51.550;7.060;2022-11-15T07:25:52;50168.78;;;-142.65;92.86
6208;BME280;3137;51.550;7.060;2022-11-15T07:28:38;50170.78;;;-142.65;92.86
6208;BME280;3137;51.550;7.060;2022-11-15T07:34:08;50164.81;;;-142.65;92.03
6208;BME280;3137;51.550;7.060;2022-11-15T07:36:54;50168.78;;;-142.65;91.77
6208;BME280;3137;51.550;7.060;2022-11-15T07:42:23;50174.75;;;-142.65;90.79
6208;BME280;3137;51.550;7.060;2022-11-15T07:45:28;50168.78;;;-142.65;90.18
6208;BME280;3137;51.550;7.060;2022-11-15T07:48:13;50172.78;;;-142.65;89.76
6208;BME280;3137;51.550;7.060;2022-11-15T07:50:58;50164.81;;;-142.65;88.93
6208;BME280;3137;51.550;7.060;2022-11-15T07:53:43;50164.81;;;-142.65;87.87
6208;BME280;3137;51.550;7.060;2022-11-15T07:56:29;50170.78;;;-142.65;86.77
6208;BME280;3137;51.550;7.060;2022-11-15T07:59:13;50170.78;;;-142.65;86.16
6208;BME280;3137;51.550;7.060;2022-11-15T08:01:58;50170.78;;;-142.65;85.82
6208;BME280;3137;51.550;7.060;2022-11-15T08:04:44;50168.78;;;-142.65;85.46
6208;BME280;3137;51.550;7.060;2022-11-15T08:07:30;50172.78;;;-142.65;85.14
6208;BME280;3137;51.550;7.060;2022-11-15T08:10:15;50168.78;;;-142.65;84.62
6208;BME280;3137;51.550;7.060;2022-11-15T08:13:08;50164.81;;;-142.65;84.07
6208;BME280;3137;51.550;7.060;2022-11-15T08:18:42;50174.75;;;-142.65;84.06
6208;BME280;3137;51.550;7.060;2022-11-15T08:21:27;50170.78;;;-142.65;82.95
6208;BME280;3137;51.550;7.060;2022-11-15T08:26:56;50174.75;;;-142.65;82.37
6208;BME280;3137;51.550;7.060;2022-11-15T08:29:45;50174.75;;;-142.65;82.49
6208;BME280;3137;51.550;7.060;2022-11-15T08:32:31;50168.78;;;-142.65;82.33
6208;BME280;3137;51.550;7.060;2022-11-15T08:35:16;50168.78;;;-142.65;81.59
6208;BME280;3137;51.550;7.060;2022-11-15T08:38:01;50172.78;;;-142.65;80.99
6208;BME280;3137;51.550;7.060;2022-11-15T08:40:46;50170.78;;;-142.65;81.36
6208;BME280;3137;51.550;7.060;2022-11-15T08:43:31;50174.75;;;-142.65;81.83
6208;BME280;3137;51.550;7.060;2022-11-15T08:46:16;50168.78;;;-142.65;81.06
6208;BME280;3137;51.550;7.060;2022-11-15T08:54:32;50170.78;;;-142.65;80.72
6208;BME280;3137;51.550;7.060;2022-11-15T09:02:48;50178.75;;;-142.65;84.30
6208;BME280;3137;51.550;7.060;2022-11-15T09:05:35;50180.75;;;-142.65;84.29
6208;BME280;3137;51.550;7.060;2022-11-15T09:08:20;50170.78;;;-142.65;84.49
6208;BME280;3137;51.550;7.060;2022-11-15T09:11:25;50164.81;;;-142.65;83.98
6208;BME280;3137;51.550;7.060;2022-11-15T09:14:12;50170.78;;;-142.65;83.92
6208;BME280;3137;51.550;7.060;2022-11-15T09:16:58;50172.78;;;-142.65;83.83
6208;BME280;3137;51.550;7.060;2022-11-15T09:22:28;50170.78;;;-142.65;83.21
6208;BME280;3137;51.550;7.060;2022-11-15T09:27:58;50170.78;;;-142.65;82.58
6208;BME280;3137;51.550;7.060;2022-11-15T09:30:43;50170.78;;;-142.65;82.17
6208;BME280;3137;51.550;7.060;2022-11-15T09:33:28;50168.78;;;-142.65;79.58
6208;BME280;3137;51.550;7.060;2022-11-15T09:36:14;50174.75;;;-142.65;78.91
6208;BME280;3137;51.550;7.060;2022-11-15T09:45:18;50170.78;;;-142.65;75.65
6208;BME280;3137;51.550;7.060;2022-11-15T09:48:31;50168.78;;;-142.65;75.50
6208;BME280;3137;51.550;7.060;2022-11-15T09:51:26;50162.81;;;-142.65;74.67
6208;BME280;3137;51.550;7.060;2022-11-15T10:04:58;50162.81;;;-142.65;71.50
6208;BME280;3137;51.550;7.060;2022-11-15T10:08:10;50168.78;;;-142.65;71.85
6208;BME280;3137;51.550;7.060;2022-11-15T10:10:43;50170.78;;;-142.65;72.41
6208;BME280;3137;51.550;7.060;2022-11-15T10:13:22;50170.78;;;-142.65;70.96
6208;BME280;3137;51.550;7.060;2022-11-15T10:15:51;50170.78;;;-142.65;70.87
6208;BME280;3137;51.550;7.060;2022-11-15T10:26:51;50168.78;;;-142.65;70.68
6208;BME280;3137;51.550;7.060;2022-11-15T10:29:22;50162.81;;;-142.65;69.51
6208;BME280;3137;51.550;7.060;2022-11-15T10:34:22;50178.75;;;-142.65;68.85
6208;BME280;3137;51.550;7.060;2022-11-15T10:41:50;50170.78;;;-142.65;69.11
6208;BME280;3137;51.550;7.060;2022-11-15T10:44:18;50168.78;;;-142.65;68.65
6208;BME280;3137;51.550;7.060;2022-11-15T10:47:06;50170.78;;;-142.65;67.08
6208;BME280;3137;51.550;7.060;2022-11-15T10:50:11;50168.78;;;-142.65;66.56
6208;BME280;3137;51.550;7.060;2022-11-15T10:52:51;50176.75;;;-142.65;67.17
6208;BME280;3137;51.550;7.060;2022-11-15T11:03:06;50168.78;;;-142.65;64.47
6208;BME280;3137;51.550;7.060;2022-11-15T11:05:47;50172.78;;;-142.65;64.27
6208;BME280;3137;51.550;7.060;2022-11-15T11:10:52;50170.78;;;-142.65;63.38
6208;BME280;3137;51.550;7.060;2022-11-15T11:26:54;50164.81;;;-142.65;61.44
6208;BME280;3137;51.550;7.060;2022-11-15T11:29:49;50162.81;;;-142.65;61.52
6208;BME280;3137;51.550;7.060;2022-11-15T11:32:27;50162.81;;;-142.65;61.71
6208;BME280;3137;51.550;7.060;2022-11-15T11:35:14;50170.78;;;-142.65;61.82
6208;BME280;3137;51.550;7.060;2022-11-15T11:37:54;50168.78;;;-142.65;60.61
6208;BME280;3137;51.550;7.060;2022-11-15T11:40:39;50170.78;;;-142.65;60.45
6208;BME280;3137;51.550;7.060;2022-11-15T11:43:19;50164.81;;;-142.65;59.13
6208;BME280;3137;51.550;7.060;2022-11-15T11:53:57;50168.78;;;-142.65;60.05
6208;BME280;3137;51.550;7.060;2022-11-15T11:56:32;50174.75;;;-142.65;58.25
6208;BME280;3137;51.550;7.060;2022-11-15T12:01:44;50168.78;;;-142.65;58.13
6208;BME280;3137;51.550;7.060;2022-11-15T12:04:16;50170.78;;;-142.65;57.95
6208;BME280;3137;51.550;7.060;2022-11-15T12:07:01;50170.78;;;-142.65;56.94
6208;BME280;3137;51.550;7.060;2022-11-15T12:15:02;50168.78;;;-142.65;57.46
6208;BME280;3137;51.550;7.060;2022-11-15T12:17:31;50182.72;;;-142.65;56.99
6208;BME280;3137;51.550;7.060;2022-11-15T12:20:04;50168.78;;;-142.65;57.07
6208;BME280;3137;51.550;7.060;2022-11-15T12:30:20;50168.78;;;-142.65;57.31
6208;BME280;3137;51.550;7.060;2022-11-15T12:33:00;50168.78;;;-142.65;57.23
6208;BME280;3137;51.550;7.060;2022-11-15T12:35:37;50170.78;;;-142.65;56.60
6208;BME280;3137;51.550;7.060;2022-11-15T12:38:10;50170.78;;;-142.65;57.18
6208;BME280;3137;51.550;7.060;2022-11-15T12:43:32;50168.78;;;-142.65;56.34
6208;BME280;3137;51.550;7.060;2022-11-15T13:01:07;50170.78;;;-142.65;54.92
6208;BME280;3137;51.550;7.060;2022-11-15T13:03:34;50170.78;;;-142.65;55.49
6208;BME280;3137;51.550;7.060;2022-11-15T13:06:03;50168.78;;;-142.65;56.02
6208;BME280;3137;51.550;7.060;2022-11-15T13:08:41;50170.78;;;-142.65;55.98
6208;BME280;3137;51.550;7.060;2022-11-15T13:13:55;50172.78;;;-142.65;55.70
6208;BME280;3137;51.550;7.060;2022-11-15T13:16:21;50168.78;;;-142.65;55.59
6208;BME280;3137;51.550;7.060;2022-11-15T13:18:54;50170.78;;;-142.65;56.18
6208;BME280;3137;51.550;7.060;2022-11-15T13:21:23;50168.78;;;-142.65;56.47
6208;BME280;3137;51.550;7.060;2022-11-15T13:26:39;50168.78;;;-142.65;57.38
6208;BME280;3137;51.550;7.060;2022-11-15T13:29:15;50168.78;;;-142.65;56.94
6208;BME280;3137;51.550;7.060;2022-11-15T13:31:43;50164.81;;;-142.65;57.66
6208;BME280;3137;51.550;7.060;2022-11-15T13:39:53;50170.78;;;-142.65;58.58
6208;BME280;3137;51.550;7.060;2022-11-15T13:42:20;50168.78;;;-142.65;58.82
6208;BME280;3137;51.550;7.060;2022-11-15T13:49:57;50170.78;;;-142.65;59.00
6208;BME280;3137;51.550;7.060;2022-11-15T13:52:28;50174.75;;;-142.65;59.31
6208;BME280;3137;51.550;7.060;2022-11-15T13:57:37;50170.78;;;-142.65;59.94
6208;BME280;3137;51.550;7.060;2022-11-15T14:00:24;50170.78;;;-142.65;59.25
6208;BME280;3137;51.550;7.060;2022-11-15T14:02:51;50162.81;;;-142.65;60.54
6208;BME280;3137;51.550;7.060;2022-11-15T14:05:23;50172.78;;;-142.65;60.61
6208;BME280;3137;51.550;7.060;2022-11-15T14:10:32;50170.78;;;-142.65;60.58
6208;BME280;3137;51.550;7.060;2022-11-15T14:12:59;50168.78;;;-142.65;61.25
6208;BME280;3137;51.550;7.060;2022-11-15T14:17:59;50168.78;;;-142.65;61.87
6208;BME280;3137;51.550;7.060;2022-11-15T14:50:20;100023.50;;;19.91;47.21
6208;BME280;3137;51.550;7.060;2022-11-15T14:52:48;100020.66;;;19.55;48.17
6208;BME280;3137;51.550;7.060;2022-11-15T14:56:06;100017.34;;;19.83;48.16
6208;BME280;3137;51.550;7.060;2022-11-15T15:00:18;100004.00;;;20.97;47.01
6208;BME280;3137;51.550;7.060;2022-11-15T15:02:46;99995.72;;;21.05;46.49
6208;BME280;3137;51.550;7.060;2022-11-15T15:05:25;99998.31;;;20.92;46.71
6208;BME280;3137;51.550;7.060;2022-11-15T15:07:52;99996.25;;;20.72;46.61
6208;BME280;3137;51.550;7.060;2022-11-15T15:10:19;99994.44;;;20.58;47.40
6208;BME280;3137;51.550;7.060;2022-11-15T15:13:15;99990.31;;;20.47;47.79
6208;BME280;3137;51.550;7.060;2022-11-15T15:22:29;99970.19;;;17.76;43.06
6208;BME280;3137;51.550;7.060;2022-11-15T15:24:56;99969.22;;;16.97;45.52
6208;BME280;3137;51.550;7.060;2022-11-15T15:27:23;99968.97;;;16.16;47.69
6208;BME280;3137;51.550;7.060;2022-11-15T15:29:49;99967.09;;;15.66;49.39
6208;BME280;3137;51.550;7.060;2022-11-15T15:32:15;99952.22;;;15.02;51.05
6208;BME280;3137;51.550;7.060;2022-11-15T15:34:42;99964.50;;;14.78;51.83
6208;BME280;3137;51.550;7.060;2022-11-15T15:39:54;99960.56;;;14.19;54.34
6208;BME280;3137;51.550;7.060;2022-11-15T15:42:21;99958.25;;;14.06;54.96
6208;BME280;3137;51.550;7.060;2022-11-15T15:44:51;99953.91;;;13.95;54.86
6208;BME280;3137;51.550;7.060;2022-11-15T15:47:22;99946.50;;;13.79;55.88
6208;BME280;3137;51.550;7.060;2022-11-15T15:49:50;99956.88;;;13.74;55.93
6208;BME280;3137;51.550;7.060;2022-11-15T15:52:16;99948.56;;;13.68;56.08
6208;BME280;3137;51.550;7.060;2022-11-15T15:54:43;99949.16;;;13.61;56.84
6208;BME280;3137;51.550;7.060;2022-11-15T15:57:12;99937.16;;;13.56;56.74
6208;BME280;3137;51.550;7.060;2022-11-15T15:59:38;99941.81;;;13.54;56.94
6208;BME280;3137;51.550;7.060;2022-11-15T16:02:05;99935.59;;;13.53;57.08
6208;BME280;3137;51.550;7.060;2022-11-15T16:04:32;99934.91;;;13.51;57.06
6208;BME280;3137;51.550;7.060;2022-11-15T16:06:59;99932.09;;;13.43;57.88
6208;BME280;3137;51.550;7.060;2022-11-15T16:09:27;99920.94;;;13.38;58.13
6208;BME280;3137;51.550;7.060;2022-11-15T16:12:11;99924.72;;;13.45;57.60
6208;BME280;3137;51.550;7.060;2022-11-15T16:14:38;99922.03;;;13.45;58.37
6208;BME280;3137;51.550;7.060;2022-11-15T16:17:04;99922.19;;;13.44;58.28
6208;BME280;3137;51.550;7.060;2022-11-15T16:19:31;99920.94;;;13.38;58.43
6208;BME280;3137;51.550;7.060;2022-11-15T16:21:57;99916.88;;;13.34;58.61
6208;BME280;3137;51.550;7.060;2022-11-15T16:24:23;99921.38;;;13.33;58.37
6208;BME280;3137;51.550;7.060;2022-11-15T16:26:50;99921.69;;;13.30;58.38
6208;BME280;3137;51.550;7.060;2022-11-15T16:29:17;99914.19;;;13.24;58.74
6208;BME280;3137;51.550;7.060;2022-11-15T16:31:44;99917.16;;;13.21;58.44
6208;BME280;3137;51.550;7.060;2022-11-15T16:34:10;99921.38;;;13.24;58.63
6208;BME280;3137;51.550;7.060;2022-11-15T16:36:36;99908.81;;;13.24;58.55
6208;BME280;3137;51.550;7.060;2022-11-15T16:39:03;99911.78;;;13.21;58.86
6208;BME280;3137;51.550;7.060;2022-11-15T16:41:30;99908.38;;;13.19;59.45
6208;BME280;3137;51.550;7.060;2022-11-15T16:43:57;99909.78;;;13.23;59.37
6208;BME280;3137;51.550;7.060;2022-11-15T16:46:26;99903.44;;;13.24;59.01
6208;BME280;3137;51.550;7.060;2022-11-15T16:48:52;99891.41;;;13.18;59.55
6208;BME280;3137;51.550;7.060;2022-11-15T16:51:19;99891.56;;;13.17;59.55
6208;BME280;3137;51.550;7.060;2022-11-15T16:53:46;99890.00;;;13.14;60.47
6208;BME280;3137;51.550;7.060;2022-11-15T16:56:19;99889.03;;;13.15;60.04
6208;BME280;3137;51.550;7.060;2022-11-15T16:58:46;99883.78;;;13.14;59.90
6208;BME280;3137;51.550;7.060;2022-11-15T17:01:18;99894.94;;;13.19;60.16
6208;BME280;3137;51.550;7.060;2022-11-15T17:03:47;99898.06;;;13.24;60.24
6208;BME280;3137;51.550;7.060;2022-11-15T17:06:13;99891.56;;;13.17;60.21
6208;BME280;3137;51.550;7.060;2022-11-15T17:08:40;99891.41;;;13.18;60.18
6208;BME280;3137;51.550;7.060;2022-11-15T17:11:07;99879.09;;;13.16;61.05
6208;BME280;3137;51.550;7.060;2022-11-15T17:13:34;99884.78;;;13.13;60.54
6208;BME280;3137;51.550;7.060;2022-11-15T17:16:05;99879.09;;;13.16;60.96
6208;BME280;3137;51.550;7.060;2022-11-15T17:18:33;99885.44;;;13.25;60.83
6208;BME280;3137;51.550;7.060;2022-11-15T17:21:04;99896.63;;;13.30;60.64
6208;BME280;3137;51.550;7.060;2022-11-15T17:23:32;99886.59;;;13.22;60.94
6208;BME280;3137;51.550;7.060;2022-11-15T17:26:02;99882.63;;;13.16;60.90
6208;BME280;3137;51.550;7.060;2022-11-15T17:28:54;99873.03;;;13.14;61.29
6208;BME280;3137;51.550;7.060;2022-11-15T17:31:20;99879.09;;;13.16;61.52
6208;BME280;3137;51.550;7.060;2022-11-15T17:33:46;99872.31;;;13.12;61.68
6208;BME280;3137;51.550;7.060;2022-11-15T17:36:13;99874.56;;;13.16;61.60
6208;BME280;3137;51.550;7.060;2022-11-15T17:38:42;99868.03;;;13.19;61.33
6208;BME280;3137;51.550;7.060;2022-11-15T17:41:12;99863.81;;;13.16;61.52
6208;BME280;3137;51.550;7.060;2022-11-15T17:43:39;99862.41;;;13.22;61.68
6208;BME280;3137;51.550;7.060;2022-11-15T17:46:09;99863.91;;;13.34;60.91
6208;BME280;3137;51.550;7.060;2022-11-15T17:48:36;99869.59;;;13.31;61.24
6208;BME280;3137;51.550;7.060;2022-11-15T17:51:06;99868.03;;;13.29;61.28
6208;BME280;3137;51.550;7.060;2022-11-15T17:53:34;99874.75;;;13.43;60.31
6208;BME280;3137;51.550;7.060;2022-11-15T17:56:03;99869.56;;;13.41;60.82
6208;BME280;3137;51.550;7.060;2022-11-15T17:58:31;99862.63;;;13.38;61.18
6208;BME280;3137;51.550;7.060;2022-11-15T18:03:36;99869.56;;;13.41;60.85
6208;BME280;3137;51.550;7.060;2022-11-15T18:06:06;99865.53;;;13.45;60.95
6208;BME280;3137;51.550;7.060;2022-11-15T18:08:37;99861.88;;;13.46;60.87
6208;BME280;3137;51.550;7.060;2022-11-15T18:11:09;99863.88;;;13.44;60.70
6208;BME280;3137;51.550;7.060;2022-11-15T18:13:36;99854.66;;;13.47;60.54
6208;BME280;3137;51.550;7.060;2022-11-15T18:16:09;99851.13;;;13.46;61.27
6208;BME280;3137;51.550;7.060;2022-11-15T18:18:36;99852.78;;;13.47;61.23
6208;BME280;3137;51.550;7.060;2022-11-15T18:21:19;99845.97;;;13.53;60.77
6208;BME280;3137;51.550;7.060;2022-11-15T18:23:48;99851.50;;;13.51;61.36
6208;BME280;3137;51.550;7.060;2022-11-15T18:26:16;99844.41;;;13.50;61.45
6208;BME280;3137;51.550;7.060;2022-11-15T18:28:44;99834.59;;;13.59;61.36
6208;BME280;3137;51.550;7.060;2022-11-15T18:31:22;99830.06;;;13.59;60.80
6208;BME280;3137;51.550;7.060;2022-11-15T18:33:50;99834.75;;;13.57;61.21
6208;BME280;3137;51.550;7.060;2022-11-15T18:36:28;99835.16;;;13.63;60.99
6208;BME280;3137;51.550;7.060;2022-11-15T18:38:56;99827.00;;;13.72;60.35
6208;BME280;3137;51.550;7.060;2022-11-15T18:41:23;99828.38;;;13.76;60.39
6208;BME280;3137;51.550;7.060;2022-11-15T18:43:54;99828.69;;;13.73;60.71
6208;BME280;3137;51.550;7.060;2022-11-15T18:46:23;99823.56;;;13.80;61.13
6208;BME280;3137;51.550;7.060;2022-11-15T18:48:51;99817.16;;;13.81;62.05
6208;BME280;3137;51.550;7.060;2022-11-15T18:51:22;99807.41;;;13.80;62.07
6208;BME280;3137;51.550;7.060;2022-11-15T18:53:55;99817.94;;;13.73;62.52
6208;BME280;3137;51.550;7.060;2022-11-15T18:56:23;99812.22;;;13.76;62.59
6208;BME280;3137;51.550;7.060;2022-11-15T18:58:52;99811.41;;;13.76;62.88
6208;BME280;3137;51.550;7.060;2022-11-15T19:01:21;99804.94;;;13.69;63.50
6208;BME280;3137;51.550;7.060;2022-11-15T19:03:50;99807.53;;;13.78;63.37
6208;BME280;3137;51.550;7.060;2022-11-15T19:06:25;99798.25;;;13.73;63.34
6208;BME280;3137;51.550;7.060;2022-11-15T19:08:54;99795.41;;;13.74;63.36
6208;BME280;3137;51.550;7.060;2022-11-15T19:11:26;99808.38;;;13.79;63.37
6208;BME280;3137;51.550;7.060;2022-11-15T19:13:55;99796.63;;;13.80;63.40
6208;BME280;3137;51.550;7.060;2022-11-15T19:16:22;99797.03;;;13.85;63.33
6208;BME280;3137;51.550;7.060;2022-11-15T19:18:56;99790.63;;;13.86;63.02
6208;BME280;3137;51.550;7.060;2022-11-15T19:21:24;99799.00;;;13.83;63.12
6208;BME280;3137;51.550;7.060;2022-11-15T19:23:51;99783.41;;;13.87;63.16
6208;BME280;3137;51.550;7.060;2022-11-15T19:26:21;99794.78;;;13.80;64.15
6208;BME280;3137;51.550;7.060;2022-11-15T19:28:56;99788.00;;;13.76;63.85